sensor_id;sensor_type;location;lat;lon;timestamp;pressure;altitude;pressure_sealevel;temperature;humidity
60371;BME280;48550;40.588;49.684;2023-11-22T00:00:12;101700.63;;;8.48;100.00
60371;BME280;48550;40.588;49.684;2023-11-22T00:02:39;101683.88;;;8.39;100.00
60371;BME280;48550;40.588;49.684;2023-11-22T00:05:05;101700.38;;;8.43;100.00
60371;BME280;48550;40.588;49.684;2023-11-22T00:07:34;101716.75;;;8.61;100.00
60371;BME280;48550;40.588;49.684;2023-11-22T00:09:59;101710.34;;;8.90;100.00
60371;BME280;48550;40.588;49.684;2023-11-22T00:12:27;101725.34;;;9.12;100.00
60371;BME280;48550;40.588;49.684;2023-11-22T00:14:53;101723.84;;;9.03;100.00
60371;BME280;48550;40.588;49.684;2023-11-22T00:17:20;101730.47;;;9.07;100.00
60371;BME280;48550;40.588;49.684;2023-11-22T00:19:47;101728.88;;;9.19;100.00
60371;BME280;48550;40.588;49.684;2023-11-22T00:22:13;101732.78;;;9.17;100.00
60371;BME280;48550;40.588;49.684;2023-11-22T00:24:40;101741.41;;;9.12;100.00
60371;BME280;48550;40.588;49.684;2023-11-22T00:27:07;101743.44;;;9.10;100.00
60371;BME280;48550;40.588;49.684;2023-11-22T00:29:33;101741.66;;;8.89;100.00
60371;BME280;48550;40.588;49.684;2023-11-22T00:31:59;101737.91;;;8.84;100.00
60371;BME280;48550;40.588;49.684;2023-11-22T00:34:25;101746.94;;;8.76;100.00
60371;BME280;48550;40.588;49.684;2023-11-22T00:36:52;101756.72;;;8.63;100.00
60371;BME280;48550;40.588;49.684;2023-11-22T00:39:18;101748.78;;;8.76;100.00
60371;BME280;48550;40.588;49.684;2023-11-22T00:41:44;101762.53;;;8.73;100.00
60371;BME280;48550;40.588;49.684;2023-11-22T00:44:11;101774.66;;;8.69;100.00
60371;BME280;48550;40.588;49.684;2023-11-22T00:46:37;101777.53;;;8.67;100.00
60371;BME280;48550;40.588;49.684;2023-11-22T00:49:04;101775.88;;;8.66;100.00
60371;BME280;48550;40.588;49.684;2023-11-22T00:51:34;101777.34;;;8.69;100.00
60371;BME280;48550;40.588;49.684;2023-11-22T00:54:00;101774.53;;;8.77;100.00
60371;BME280;48550;40.588;49.684;2023-11-22T00:56:26;101783.66;;;8.89;100.00
60371;BME280;48550;40.588;49.684;2023-11-22T00:58:52;101782.22;;;9.14;100.00
60371;BME280;48550;40.588;49.684;2023-11-22T01:01:21;101792.84;;;9.01;100.00
60371;BME280;48550;40.588;49.684;2023-11-22T01:03:47;101794.00;;;8.92;100.00
60371;BME280;48550;40.588;49.684;2023-11-22T01:06:13;101795.16;;;8.83;100.00
60371;BME280;48550;40.588;49.684;2023-11-22T01:08:39;101796.81;;;8.84;100.00
60371;BME280;48550;40.588;49.684;2023-11-22T01:11:05;101803.91;;;8.70;100.00
60371;BME280;48550;40.588;49.684;2023-11-22T01:13:34;101813.34;;;8.66;100.00
60371;BME280;48550;40.588;49.684;2023-11-22T01:16:07;101816.03;;;8.66;100.00
60371;BME280;48550;40.588;49.684;2023-11-22T01:18:32;101814.94;;;8.60;100.00
60371;BME280;48550;40.588;49.684;2023-11-22T01:20:58;101823.84;;;8.68;100.00
60371;BME280;48550;40.588;49.684;2023-11-22T01:23:24;101827.56;;;8.67;100.00
60371;BME280;48550;40.588;49.684;2023-11-22T01:25:49;101830.47;;;8.72;100.00
60371;BME280;48550;40.588;49.684;2023-11-22T01:28:16;101834.81;;;8.73;100.00
60371;BME280;48550;40.588;49.684;2023-11-22T01:30:43;101829.91;;;8.76;100.00
60371;BME280;48550;40.588;49.684;2023-11-22T01:33:12;101836.91;;;8.77;100.00
60371;BME280;48550;40.588;49.684;2023-11-22T01:35:38;101839.53;;;8.71;100.00
60371;BME280;48550;40.588;49.684;2023-11-22T01:38:04;101845.72;;;8.71;100.00
60371;BME280;48550;40.588;49.684;2023-11-22T01:40:31;101837.94;;;8.76;100.00
60371;BME280;48550;40.588;49.684;2023-11-22T01:42:57;101838.69;;;8.70;100.00
60371;BME280;48550;40.588;49.684;2023-11-22T01:45:23;101844.50;;;8.74;100.00
60371;BME280;48550;40.588;49.684;2023-11-22T01:47:50;101850.28;;;8.77;100.00
60371;BME280;48550;40.588;49.684;2023-11-22T01:50:17;101852.38;;;8.82;100.00
60371;BME280;48550;40.588;49.684;2023-11-22T01:52:43;101859.41;;;8.83;100.00
60371;BME280;48550;40.588;49.684;2023-11-22T01:55:10;101856.13;;;8.87;100.00
60371;BME280;48550;40.588;49.684;2023-11-22T01:57:35;101862.31;;;8.88;100.00
60371;BME280;48550;40.588;49.684;2023-11-22T02:00:02;101863.25;;;8.74;100.00
60371;BME280;48550;40.588;49.684;2023-11-22T02:02:33;101871.66;;;8.71;100.00
60371;BME280;48550;40.588;49.684;2023-11-22T02:04:59;101872.91;;;8.75;100.00
60371;BME280;48550;40.588;49.684;2023-11-22T02:07:27;101883.00;;;8.73;100.00
60371;BME280;48550;40.588;49.684;2023-11-22T02:09:53;101880.44;;;8.65;100.00
60371;BME280;48550;40.588;49.684;2023-11-22T02:12:19;101879.38;;;8.59;100.00
60371;BME280;48550;40.588;49.684;2023-11-22T02:14:45;101880.56;;;8.56;100.00
60371;BME280;48550;40.588;49.684;2023-11-22T02:17:12;101877.38;;;8.46;100.00
60371;BME280;48550;40.588;49.684;2023-11-22T02:19:38;101875.09;;;8.43;100.00
60371;BME280;48550;40.588;49.684;2023-11-22T02:22:03;101876.31;;;8.41;100.00
60371;BME280;48550;40.588;49.684;2023-11-22T02:24:29;101879.63;;;8.43;100.00
60371;BME280;48550;40.588;49.684;2023-11-22T02:26:55;101889.09;;;8.45;100.00
60371;BME280;48550;40.588;49.684;2023-11-22T02:29:21;101880.31;;;8.51;100.00
60371;BME280;48550;40.588;49.684;2023-11-22T02:31:47;101884.66;;;8.52;100.00
60371;BME280;48550;40.588;49.684;2023-11-22T02:34:13;101896.94;;;8.47;100.00
60371;BME280;48550;40.588;49.684;2023-11-22T02:36:44;101900.72;;;8.52;100.00
60371;BME280;48550;40.588;49.684;2023-11-22T02:39:09;101906.25;;;8.51;100.00
60371;BME280;48550;40.588;49.684;2023-11-22T02:41:36;101913.06;;;8.53;100.00
60371;BME280;48550;40.588;49.684;2023-11-22T02:44:02;101917.59;;;8.53;100.00
60371;BME280;48550;40.588;49.684;2023-11-22T02:46:28;101938.81;;;8.54;100.00
60371;BME280;48550;40.588;49.684;2023-11-22T02:48:56;101925.09;;;8.43;100.00
60371;BME280;48550;40.588;49.684;2023-11-22T02:51:22;101940.13;;;8.44;100.00
60371;BME280;48550;40.588;49.684;2023-11-22T02:53:48;101945.47;;;8.44;100.00
60371;BME280;48550;40.588;49.684;2023-11-22T02:56:15;101945.03;;;8.40;100.00
60371;BME280;48550;40.588;49.684;2023-11-22T02:58:42;101943.25;;;8.47;100.00
60371;BME280;48550;40.588;49.684;2023-11-22T03:01:07;101943.81;;;8.43;100.00
60371;BME280;48550;40.588;49.684;2023-11-22T03:03:34;101944.28;;;8.46;100.00
60371;BME280;48550;40.588;49.684;2023-11-22T03:06:00;101941.03;;;8.51;100.00
60371;BME280;48550;40.588;49.684;2023-11-22T03:08:26;101944.91;;;8.48;100.00
60371;BME280;48550;40.588;49.684;2023-11-22T03:10:53;101943.63;;;8.44;100.00
60371;BME280;48550;40.588;49.684;2023-11-22T03:13:19;101948.34;;;8.42;100.00
60371;BME280;48550;40.588;49.684;2023-11-22T03:15:45;101969.00;;;8.48;100.00
60371;BME280;48550;40.588;49.684;2023-11-22T03:18:10;101974.41;;;8.55;100.00
60371;BME280;48550;40.588;49.684;2023-11-22T03:20:37;101966.47;;;8.62;100.00
60371;BME280;48550;40.588;49.684;2023-11-22T03:23:03;101946.59;;;8.71;100.00
60371;BME280;48550;40.588;49.684;2023-11-22T03:25:30;101953.22;;;8.75;100.00
60371;BME280;48550;40.588;49.684;2023-11-22T03:27:56;101941.25;;;8.71;100.00
60371;BME280;48550;40.588;49.684;2023-11-22T03:30:22;101954.38;;;8.66;100.00
60371;BME280;48550;40.588;49.684;2023-11-22T03:32:48;101958.06;;;8.65;100.00
60371;BME280;48550;40.588;49.684;2023-11-22T03:35:15;101951.22;;;8.62;100.00
60371;BME280;48550;40.588;49.684;2023-11-22T03:37:42;101951.34;;;8.54;100.00
60371;BME280;48550;40.588;49.684;2023-11-22T03:40:08;101952.69;;;8.43;100.00
60371;BME280;48550;40.588;49.684;2023-11-22T03:42:38;101956.00;;;8.45;100.00
60371;BME280;48550;40.588;49.684;2023-11-22T03:45:07;101956.00;;;8.45;100.00
60371;BME280;48550;40.588;49.684;2023-11-22T03:47:32;101962.38;;;8.44;100.00
60371;BME280;48550;40.588;49.684;2023-11-22T03:49:59;101965.13;;;8.51;100.00
60371;BME280;48550;40.588;49.684;2023-11-22T03:52:25;101966.22;;;8.78;100.00
60371;BME280;48550;40.588;49.684;2023-11-22T03:54:52;101974.19;;;9.63;100.00
60371;BME280;48550;40.588;49.684;2023-11-22T03:57:18;101970.59;;;10.12;100.00
60371;BME280;48550;40.588;49.684;2023-11-22T03:59:44;101972.41;;;10.05;100.00
60371;BME280;48550;40.588;49.684;2023-11-22T04:02:10;101983.50;;;10.97;100.00
60371;BME280;48550;40.588;49.684;2023-11-22T04:04:36;101987.06;;;11.84;100.00
60371;BME280;48550;40.588;49.684;2023-11-22T04:07:05;101996.34;;;12.59;100.00
60371;BME280;48550;40.588;49.684;2023-11-22T04:09:31;102007.72;;;13.37;100.00
60371;BME280;48550;40.588;49.684;2023-11-22T04:11:58;102013.94;;;14.06;100.00
60371;BME280;48550;40.588;49.684;2023-11-22T04:14:24;102007.09;;;14.46;100.00
60371;BME280;48550;40.588;49.684;2023-11-22T04:16:51;102008.00;;;14.88;100.00
60371;BME280;48550;40.588;49.684;2023-11-22T04:19:17;102024.19;;;15.18;100.00
60371;BME280;48550;40.588;49.684;2023-11-22T04:21:42;102030.94;;;15.39;100.00
60371;BME280;48550;40.588;49.684;2023-11-22T04:24:08;102036.09;;;15.82;100.00
60371;BME280;48550;40.588;49.684;2023-11-22T04:26:34;102040.31;;;16.13;100.00
60371;BME280;48550;40.588;49.684;2023-11-22T04:29:00;102054.16;;;16.52;100.00
60371;BME280;48550;40.588;49.684;2023-11-22T04:31:25;102059.31;;;16.77;100.00
60371;BME280;48550;40.588;49.684;2023-11-22T04:33:51;102068.97;;;17.13;100.00
60371;BME280;48550;40.588;49.684;2023-11-22T04:36:18;102078.06;;;17.35;100.00
60371;BME280;48550;40.588;49.684;2023-11-22T04:38:44;102073.22;;;17.54;100.00
60371;BME280;48550;40.588;49.684;2023-11-22T04:41:09;102084.94;;;17.71;100.00
60371;BME280;48550;40.588;49.684;2023-11-22T04:43:35;102092.94;;;16.52;92.48
60371;BME280;48550;40.588;49.684;2023-11-22T04:46:02;102087.28;;;16.19;100.00
60371;BME280;48550;40.588;49.684;2023-11-22T04:48:29;102096.94;;;16.50;100.00
60371;BME280;48550;40.588;49.684;2023-11-22T04:50:55;102094.59;;;15.42;100.00
60371;BME280;48550;40.588;49.684;2023-11-22T04:53:21;102097.03;;;13.79;100.00
60371;BME280;48550;40.588;49.684;2023-11-22T04:55:46;102106.25;;;14.39;100.00
60371;BME280;48550;40.588;49.684;2023-11-22T04:58:12;102111.72;;;13.58;100.00
60371;BME280;48550;40.588;49.684;2023-11-22T05:00:38;102107.28;;;12.94;100.00
60371;BME280;48550;40.588;49.684;2023-11-22T05:03:03;102104.38;;;14.21;100.00
60371;BME280;48550;40.588;49.684;2023-11-22T05:05:29;102103.06;;;15.75;100.00
60371;BME280;48550;40.588;49.684;2023-11-22T05:07:55;102106.91;;;16.84;100.00
60371;BME280;48550;40.588;49.684;2023-11-22T05:10:20;102113.41;;;17.69;89.08
60371;BME280;48550;40.588;49.684;2023-11-22T05:12:46;102124.69;;;18.11;83.28
60371;BME280;48550;40.588;49.684;2023-11-22T05:15:12;102123.66;;;18.34;77.02
60371;BME280;48550;40.588;49.684;2023-11-22T05:17:39;102125.28;;;18.68;68.32
60371;BME280;48550;40.588;49.684;2023-11-22T05:20:06;102131.16;;;18.82;68.91
60371;BME280;48550;40.588;49.684;2023-11-22T05:22:35;102122.91;;;18.38;60.67
60371;BME280;48550;40.588;49.684;2023-11-22T05:25:01;102119.06;;;18.56;67.61
60371;BME280;48550;40.588;49.684;2023-11-22T05:27:27;102137.53;;;18.93;61.44
60371;BME280;48550;40.588;49.684;2023-11-22T05:29:54;102144.78;;;19.53;62.28
60371;BME280;48550;40.588;49.684;2023-11-22T05:32:19;102147.75;;;19.29;59.63
60371;BME280;48550;40.588;49.684;2023-11-22T05:34:45;102141.56;;;19.34;57.05
60371;BME280;48550;40.588;49.684;2023-11-22T05:37:12;102136.25;;;19.49;56.29
60371;BME280;48550;40.588;49.684;2023-11-22T05:39:37;102133.50;;;19.22;55.97
60371;BME280;48550;40.588;49.684;2023-11-22T05:42:03;102135.31;;;19.12;54.22
60371;BME280;48550;40.588;49.684;2023-11-22T05:44:29;102125.22;;;18.63;59.43
60371;BME280;48550;40.588;49.684;2023-11-22T05:46:54;102122.22;;;18.87;59.18
60371;BME280;48550;40.588;49.684;2023-11-22T05:49:20;102111.06;;;19.10;56.40
60371;BME280;48550;40.588;49.684;2023-11-22T05:51:46;102108.75;;;18.97;57.45
60371;BME280;48550;40.588;49.684;2023-11-22T05:54:12;102108.16;;;19.44;56.76
60371;BME280;48550;40.588;49.684;2023-11-22T05:56:38;102097.13;;;19.55;55.66
60371;BME280;48550;40.588;49.684;2023-11-22T05:59:03;102108.25;;;19.81;54.07
60371;BME280;48550;40.588;49.684;2023-11-22T06:01:29;102110.44;;;19.84;52.05
60371;BME280;48550;40.588;49.684;2023-11-22T06:03:55;102103.25;;;20.42;52.04
60371;BME280;48550;40.588;49.684;2023-11-22T06:06:21;102102.28;;;20.21;50.80
60371;BME280;48550;40.588;49.684;2023-11-22T06:08:48;102101.16;;;20.17;50.29
60371;BME280;48550;40.588;49.684;2023-11-22T06:11:14;102100.91;;;20.18;49.50
60371;BME280;48550;40.588;49.684;2023-11-22T06:13:43;102095.13;;;20.10;49.63
60371;BME280;48550;40.588;49.684;2023-11-22T06:16:09;102081.38;;;20.37;50.46
60371;BME280;48550;40.588;49.684;2023-11-22T06:18:35;102091.94;;;20.80;47.84
60371;BME280;48550;40.588;49.684;2023-11-22T06:21:06;102083.25;;;20.83;48.01
60371;BME280;48550;40.588;49.684;2023-11-22T06:23:32;102085.22;;;19.98;50.85
60371;BME280;48550;40.588;49.684;2023-11-22T06:25:58;102089.41;;;20.58;48.61
60371;BME280;48550;40.588;49.684;2023-11-22T06:28:24;102095.91;;;21.20;47.24
60371;BME280;48550;40.588;49.684;2023-11-22T06:30:50;102102.00;;;21.73;46.67
60371;BME280;48550;40.588;49.684;2023-11-22T06:33:16;102100.22;;;21.01;46.03
60371;BME280;48550;40.588;49.684;2023-11-22T06:35:41;102095.03;;;18.48;53.73
60371;BME280;48550;40.588;49.684;2023-11-22T06:38:08;102089.75;;;16.67;64.69
60371;BME280;48550;40.588;49.684;2023-11-22T06:40:34;102099.31;;;15.88;72.36
60371;BME280;48550;40.588;49.684;2023-11-22T06:43:00;102093.50;;;14.83;81.89
60371;BME280;48550;40.588;49.684;2023-11-22T06:45:26;102104.25;;;14.71;87.52
60371;BME280;48550;40.588;49.684;2023-11-22T06:47:51;102116.34;;;14.50;92.75
60371;BME280;48550;40.588;49.684;2023-11-22T06:50:18;102113.41;;;14.52;100.00
60371;BME280;48550;40.588;49.684;2023-11-22T06:52:43;102111.69;;;14.57;100.00
60371;BME280;48550;40.588;49.684;2023-11-22T06:55:10;102116.41;;;14.44;99.55
60371;BME280;48550;40.588;49.684;2023-11-22T06:57:37;102110.28;;;14.30;99.81
60371;BME280;48550;40.588;49.684;2023-11-22T07:00:04;102113.44;;;14.27;100.00
60371;BME280;48550;40.588;49.684;2023-11-22T07:02:30;102116.91;;;14.09;100.00
60371;BME280;48550;40.588;49.684;2023-11-22T07:04:56;102119.34;;;14.17;100.00
60371;BME280;48550;40.588;49.684;2023-11-22T07:07:25;102114.41;;;14.14;100.00
60371;BME280;48550;40.588;49.684;2023-11-22T07:09:50;102108.22;;;14.07;100.00
60371;BME280;48550;40.588;49.684;2023-11-22T07:12:16;102106.53;;;14.13;100.00
60371;BME280;48550;40.588;49.684;2023-11-22T07:14:42;102116.22;;;14.20;100.00
60371;BME280;48550;40.588;49.684;2023-11-22T07:17:09;102109.38;;;14.18;100.00
60371;BME280;48550;40.588;49.684;2023-11-22T07:19:35;102126.41;;;14.18;100.00
60371;BME280;48550;40.588;49.684;2023-11-22T07:22:06;102113.59;;;14.32;100.00
60371;BME280;48550;40.588;49.684;2023-11-22T07:24:44;102124.41;;;14.32;100.00
60371;BME280;48550;40.588;49.684;2023-11-22T07:27:14;102115.53;;;14.25;100.00
60371;BME280;48550;40.588;49.684;2023-11-22T07:29:41;102114.03;;;14.29;100.00
60371;BME280;48550;40.588;49.684;2023-11-22T07:32:07;102119.91;;;14.26;95.81
60371;BME280;48550;40.588;49.684;2023-11-22T07:34:37;102118.00;;;14.51;92.09
60371;BME280;48550;40.588;49.684;2023-11-22T07:37:05;102132.34;;;14.52;92.22
60371;BME280;48550;40.588;49.684;2023-11-22T07:39:33;102116.78;;;14.66;91.63
60371;BME280;48550;40.588;49.684;2023-11-22T07:42:01;102121.38;;;14.65;78.03
60371;BME280;48550;40.588;49.684;2023-11-22T07:44:27;102114.16;;;14.77;79.72
60371;BME280;48550;40.588;49.684;2023-11-22T07:46:53;102112.53;;;14.94;82.48
60371;BME280;48550;40.588;49.684;2023-11-22T07:49:19;102115.72;;;15.03;80.78
60371;BME280;48550;40.588;49.684;2023-11-22T07:51:46;102106.09;;;15.07;78.81
60371;BME280;48550;40.588;49.684;2023-11-22T07:54:13;102114.78;;;15.27;76.81
60371;BME280;48550;40.588;49.684;2023-11-22T07:56:43;102109.28;;;15.46;76.63
60371;BME280;48550;40.588;49.684;2023-11-22T07:59:09;102109.34;;;15.57;73.80
60371;BME280;48550;40.588;49.684;2023-11-22T08:01:39;102107.41;;;15.65;77.88
60371;BME280;48550;40.588;49.684;2023-11-22T08:04:10;102095.59;;;15.59;73.67
60371;BME280;48550;40.588;49.684;2023-11-22T08:06:37;102105.44;;;15.53;72.89
60371;BME280;48550;40.588;49.684;2023-11-22T08:09:03;102095.19;;;15.44;75.01
60371;BME280;48550;40.588;49.684;2023-11-22T08:11:30;102091.50;;;15.38;74.30
60371;BME280;48550;40.588;49.684;2023-11-22T08:13:57;102082.81;;;15.36;76.33
60371;BME280;48550;40.588;49.684;2023-11-22T08:16:25;102077.03;;;15.33;81.25
60371;BME280;48550;40.588;49.684;2023-11-22T08:18:51;102084.31;;;15.32;78.61
60371;BME280;48550;40.588;49.684;2023-11-22T08:21:17;102074.41;;;15.14;76.16
60371;BME280;48550;40.588;49.684;2023-11-22T08:23:46;102065.09;;;15.10;80.25
60371;BME280;48550;40.588;49.684;2023-11-22T08:26:12;102074.50;;;15.08;81.94
60371;BME280;48550;40.588;49.684;2023-11-22T08:28:38;102076.88;;;15.16;98.28
60371;BME280;48550;40.588;49.684;2023-11-22T08:31:04;102078.16;;;15.13;78.10
60371;BME280;48550;40.588;49.684;2023-11-22T08:33:32;102079.47;;;14.92;71.43
60371;BME280;48550;40.588;49.684;2023-11-22T08:35:58;102070.41;;;14.87;72.33
60371;BME280;48550;40.588;49.684;2023-11-22T08:38:26;102063.63;;;14.78;65.95
60371;BME280;48550;40.588;49.684;2023-11-22T08:40:52;102073.09;;;14.69;68.18
60371;BME280;48550;40.588;49.684;2023-11-22T08:43:18;102078.78;;;14.79;71.02
60371;BME280;48550;40.588;49.684;2023-11-22T08:45:49;102072.13;;;14.81;72.82
60371;BME280;48550;40.588;49.684;2023-11-22T08:48:14;102069.78;;;14.85;70.99
60371;BME280;48550;40.588;49.684;2023-11-22T08:50:41;102068.66;;;14.92;73.75
60371;BME280;48550;40.588;49.684;2023-11-22T08:53:06;102075.81;;;14.87;67.94
60371;BME280;48550;40.588;49.684;2023-11-22T08:55:33;102081.88;;;14.82;64.44
60371;BME280;48550;40.588;49.684;2023-11-22T08:57:59;102085.34;;;14.71;59.18
60371;BME280;48550;40.588;49.684;2023-11-22T09:00:25;102072.28;;;14.68;60.60
60371;BME280;48550;40.588;49.684;2023-11-22T09:02:54;102074.38;;;14.66;61.48
60371;BME280;48550;40.588;49.684;2023-11-22T09:05:22;102074.09;;;14.56;62.45
60371;BME280;48550;40.588;49.684;2023-11-22T09:07:48;102074.91;;;14.56;59.26
60371;BME280;48550;40.588;49.684;2023-11-22T09:10:16;102066.72;;;14.63;63.98
60371;BME280;48550;40.588;49.684;2023-11-22T09:12:44;102063.56;;;14.66;57.54
60371;BME280;48550;40.588;49.684;2023-11-22T09:15:11;102058.03;;;14.61;56.23
60371;BME280;48550;40.588;49.684;2023-11-22T09:17:39;102062.22;;;14.57;55.99
60371;BME280;48550;40.588;49.684;2023-11-22T09:20:18;102067.50;;;14.52;55.69
60371;BME280;48550;40.588;49.684;2023-11-22T09:22:53;102070.50;;;14.44;54.04
60371;BME280;48550;40.588;49.684;2023-11-22T09:25:24;102075.13;;;14.37;52.26
60371;BME280;48550;40.588;49.684;2023-11-22T09:27:52;102080.59;;;14.30;53.08
60371;BME280;48550;40.588;49.684;2023-11-22T09:30:25;102073.91;;;14.32;52.37
60371;BME280;48550;40.588;49.684;2023-11-22T09:33:10;102075.13;;;14.37;52.59
60371;BME280;48550;40.588;49.684;2023-11-22T09:35:37;102080.53;;;14.37;52.94
60371;BME280;48550;40.588;49.684;2023-11-22T09:38:07;102071.00;;;14.34;51.13
60371;BME280;48550;40.588;49.684;2023-11-22T09:40:43;102070.38;;;14.32;51.71
60371;BME280;48550;40.588;49.684;2023-11-22T09:43:11;102059.22;;;14.28;53.34
60371;BME280;48550;40.588;49.684;2023-11-22T09:45:37;102052.59;;;14.24;51.10
60371;BME280;48550;40.588;49.684;2023-11-22T09:50:58;102064.69;;;14.22;51.42
60371;BME280;48550;40.588;49.684;2023-11-22T09:53:40;102059.97;;;14.17;50.93
60371;BME280;48550;40.588;49.684;2023-11-22T09:56:07;102064.91;;;14.20;52.22
60371;BME280;48550;40.588;49.684;2023-11-22T09:58:35;102052.97;;;14.28;52.39
60371;BME280;48550;40.588;49.684;2023-11-22T10:01:02;102051.09;;;14.28;52.38
60371;BME280;48550;40.588;49.684;2023-11-22T10:03:29;102048.41;;;14.28;55.15
60371;BME280;48550;40.588;49.684;2023-11-22T10:05:58;102049.91;;;14.24;53.39
60371;BME280;48550;40.588;49.684;2023-11-22T10:08:25;102048.72;;;14.20;53.81
60371;BME280;48550;40.588;49.684;2023-11-22T10:10:53;102042.25;;;14.21;53.33
60371;BME280;48550;40.588;49.684;2023-11-22T10:13:20;102044.72;;;14.23;54.17
60371;BME280;48550;40.588;49.684;2023-11-22T10:15:47;102035.59;;;14.24;54.52
60371;BME280;48550;40.588;49.684;2023-11-22T10:18:20;102034.97;;;14.22;54.66
60371;BME280;48550;40.588;49.684;2023-11-22T10:20:49;102033.41;;;14.14;57.05
60371;BME280;48550;40.588;49.684;2023-11-22T10:23:17;102039.63;;;14.15;55.82
60371;BME280;48550;40.588;49.684;2023-11-22T10:25:44;102030.28;;;14.11;56.59
60371;BME280;48550;40.588;49.684;2023-11-22T10:28:13;102028.41;;;14.11;57.06
60371;BME280;48550;40.588;49.684;2023-11-22T10:30:39;102026.16;;;14.08;56.62
60371;BME280;48550;40.588;49.684;2023-11-22T10:33:10;102021.59;;;14.09;58.62
60371;BME280;48550;40.588;49.684;2023-11-22T10:35:42;102025.13;;;14.09;57.07
60371;BME280;48550;40.588;49.684;2023-11-22T10:38:09;102035.91;;;14.09;58.63
60371;BME280;48550;40.588;49.684;2023-11-22T10:40:36;102030.53;;;14.09;60.34
60371;BME280;48550;40.588;49.684;2023-11-22T10:43:02;102029.09;;;14.07;67.57
60371;BME280;48550;40.588;49.684;2023-11-22T10:45:30;102030.94;;;14.13;69.15
60371;BME280;48550;40.588;49.684;2023-11-22T10:48:00;102027.56;;;14.17;67.46
60371;BME280;48550;40.588;49.684;2023-11-22T10:50:26;102030.25;;;14.17;70.70
60371;BME280;48550;40.588;49.684;2023-11-22T10:52:56;102033.41;;;14.14;67.64
60371;BME280;48550;40.588;49.684;2023-11-22T10:55:32;102042.16;;;14.10;68.71
60371;BME280;48550;40.588;49.684;2023-11-22T10:58:03;102039.03;;;14.13;71.43
60371;BME280;48550;40.588;49.684;2023-11-22T11:00:32;102030.75;;;14.08;71.13
60371;BME280;48550;40.588;49.684;2023-11-22T11:03:00;102033.28;;;14.03;63.21
60371;BME280;48550;40.588;49.684;2023-11-22T11:05:31;102035.38;;;14.00;70.13
60371;BME280;48550;40.588;49.684;2023-11-22T11:08:09;102040.72;;;14.07;79.85
60371;BME280;48550;40.588;49.684;2023-11-22T11:10:43;102044.31;;;14.01;86.12
60371;BME280;48550;40.588;49.684;2023-11-22T11:13:10;102055.84;;;13.90;92.43
60371;BME280;48550;40.588;49.684;2023-11-22T11:15:40;102056.50;;;13.85;96.10
60371;BME280;48550;40.588;49.684;2023-11-22T11:18:10;102048.78;;;13.89;98.56
60371;BME280;48550;40.588;49.684;2023-11-22T11:20:51;102051.78;;;13.81;98.33
60371;BME280;48550;40.588;49.684;2023-11-22T11:23:23;102056.13;;;13.82;100.00
60371;BME280;48550;40.588;49.684;2023-11-22T11:25:56;102048.91;;;13.76;100.00
60371;BME280;48550;40.588;49.684;2023-11-22T11:28:23;102052.88;;;13.73;100.00
60371;BME280;48550;40.588;49.684;2023-11-22T11:30:53;102054.97;;;13.71;93.53
60371;BME280;48550;40.588;49.684;2023-11-22T11:33:32;102052.22;;;13.78;100.00
60371;BME280;48550;40.588;49.684;2023-11-22T11:36:00;102056.69;;;13.65;100.00
60371;BME280;48550;40.588;49.684;2023-11-22T11:38:35;102056.06;;;13.63;100.00
60371;BME280;48550;40.588;49.684;2023-11-22T11:41:11;102061.47;;;13.63;97.41
60371;BME280;48550;40.588;49.684;2023-11-22T11:43:43;102061.69;;;13.62;100.00
60371;BME280;48550;40.588;49.684;2023-11-22T11:46:11;102055.31;;;13.56;99.03
60371;BME280;48550;40.588;49.684;2023-11-22T11:48:37;102067.75;;;13.57;100.00
60371;BME280;48550;40.588;49.684;2023-11-22T11:51:03;102066.09;;;13.56;100.00
60371;BME280;48550;40.588;49.684;2023-11-22T11:53:29;102066.47;;;13.60;96.17
60371;BME280;48550;40.588;49.684;2023-11-22T11:55:57;102072.09;;;13.58;95.32
60371;BME280;48550;40.588;49.684;2023-11-22T11:58:23;102071.50;;;13.56;94.59
60371;BME280;48550;40.588;49.684;2023-11-22T12:00:54;102068.56;;;13.58;95.26
60371;BME280;48550;40.588;49.684;2023-11-22T12:03:19;102072.53;;;13.55;96.40
60371;BME280;48550;40.588;49.684;2023-11-22T12:05:47;102070.88;;;13.54;90.39
60371;BME280;48550;40.588;49.684;2023-11-22T12:08:16;102067.59;;;13.52;90.49
60371;BME280;48550;40.588;49.684;2023-11-22T12:10:45;102053.28;;;13.52;91.07
60371;BME280;48550;40.588;49.684;2023-11-22T12:13:21;102056.78;;;13.52;88.40
60371;BME280;48550;40.588;49.684;2023-11-22T12:15:47;102064.88;;;13.52;87.23
60371;BME280;48550;40.588;49.684;2023-11-22T12:18:13;102061.31;;;13.58;91.82
60371;BME280;48550;40.588;49.684;2023-11-22T12:20:39;102066.09;;;13.56;91.89
60371;BME280;48550;40.588;49.684;2023-11-22T12:23:06;102063.63;;;13.55;87.88
60371;BME280;48550;40.588;49.684;2023-11-22T12:25:32;102058.38;;;13.60;88.66
60371;BME280;48550;40.588;49.684;2023-11-22T12:27:58;102058.38;;;13.60;91.49
60371;BME280;48550;40.588;49.684;2023-11-22T12:32:54;102048.09;;;13.50;90.58
60371;BME280;48550;40.588;49.684;2023-11-22T12:35:22;102054.16;;;13.46;89.18
60371;BME280;48550;40.588;49.684;2023-11-22T12:37:48;102056.03;;;13.45;87.36
60371;BME280;48550;40.588;49.684;2023-11-22T12:40:14;102048.75;;;13.46;88.89
60371;BME280;48550;40.588;49.684;2023-11-22T12:42:47;102050.00;;;13.43;86.32